Time;durP1;ratioP1;P1;durP2;ratioP2;P2;SDS_P1;SDS_P2;PMS_P1;PMS_P2;Temp;Humidity;BMP_temperature;BMP_pressure;BME280_temperature;BME280_humidity;BME280_pressure;Samples;Min_cycle;Max_cycle;Signal;HPM_P1;HPM_P2
2021/04/23 00:01:14;;;;;;;11.88;4.97;;;4.50;99.90;;;;;;466921;255;27797;-72
2021/04/23 00:03:15;;;;;;;13.07;5.57;;;4.40;99.90;;;;;;466935;255;27410;-71
2021/04/23 00:05:17;;;;;;;6.22;4.53;;;4.40;99.90;;;;;;466955;255;27987;-71
2021/04/23 00:07:18;;;;;;;8.63;5.15;;;4.40;99.90;;;;;;466943;255;27861;-70
2021/04/23 00:09:19;;;;;;;6.82;4.40;;;4.40;99.90;;;;;;466596;250;27511;-71
2021/04/23 00:11:20;;;;;;;8.23;4.43;;;4.40;99.90;;;;;;466920;255;27432;-71
2021/04/23 00:13:22;;;;;;;7.75;4.40;;;4.50;99.90;;;;;;466931;255;27408;-70
2021/04/23 00:15:23;;;;;;;10.98;4.10;;;4.50;99.90;;;;;;466940;254;27447;-71
2021/04/23 00:17:24;;;;;;;8.68;3.65;;;4.50;99.90;;;;;;466930;255;27404;-70
2021/04/23 00:19:25;;;;;;;5.65;3.50;;;4.50;99.90;;;;;;466966;250;27440;-71
2021/04/23 00:21:27;;;;;;;6.03;3.83;;;4.50;99.90;;;;;;466939;255;27996;-71
2021/04/23 00:23:28;;;;;;;5.20;3.60;;;4.50;99.90;;;;;;466959;250;27950;-70
2021/04/23 00:25:29;;;;;;;8.75;3.80;;;4.50;99.90;;;;;;466946;251;27548;-70
2021/04/23 00:27:31;;;;;;;7.32;4.55;;;4.40;99.90;;;;;;466974;251;27480;-70
2021/04/23 00:29:32;;;;;;;8.93;4.47;;;4.40;99.90;;;;;;467004;255;27525;-71
2021/04/23 00:31:33;;;;;;;14.73;4.60;;;4.30;99.90;;;;;;466972;250;27415;-71
2021/04/23 00:33:34;;;;;;;5.03;3.53;;;4.40;99.90;;;;;;466983;255;27408;-71
2021/04/23 00:35:36;;;;;;;8.00;4.32;;;4.40;99.90;;;;;;466977;255;27947;-71
2021/04/23 00:37:37;;;;;;;5.95;3.65;;;4.40;99.90;;;;;;466864;251;27852;-70
2021/04/23 00:39:38;;;;;;;14.80;5.18;;;4.50;99.90;;;;;;466968;250;27539;-70
2021/04/23 00:41:39;;;;;;;7.20;4.05;;;4.40;99.90;;;;;;466948;255;27440;-70
2021/04/23 00:43:41;;;;;;;6.60;4.60;;;4.40;99.90;;;;;;466936;255;27408;-71
2021/04/23 00:45:42;;;;;;;8.43;4.50;;;4.40;99.90;;;;;;466881;255;27446;-71
2021/04/23 00:47:43;;;;;;;8.55;4.70;;;4.40;99.90;;;;;;466967;255;27419;-70
2021/04/23 00:49:44;;;;;;;11.43;5.30;;;4.40;99.90;;;;;;466925;255;27527;-70
2021/04/23 00:51:46;;;;;;;6.30;3.70;;;4.30;99.90;;;;;;466954;255;27983;-70
2021/04/23 00:53:47;;;;;;;8.77;4.30;;;4.30;99.90;;;;;;466974;255;28037;-71
2021/04/23 00:55:48;;;;;;;9.55;4.60;;;4.30;99.90;;;;;;466977;255;28001;-71
2021/04/23 00:57:49;;;;;;;10.25;4.97;;;4.30;99.90;;;;;;466984;255;27432;-71
2021/04/23 00:59:51;;;;;;;4.97;3.78;;;4.30;99.90;;;;;;467000;255;27408;-71
2021/04/23 01:01:52;;;;;;;9.30;4.55;;;4.30;99.90;;;;;;466967;251;27432;-70
2021/04/23 01:03:53;;;;;;;15.38;4.85;;;4.20;99.90;;;;;;466947;250;27400;-71
2021/04/23 01:05:54;;;;;;;9.82;5.00;;;4.20;99.90;;;;;;466950;255;27535;-72
2021/04/23 01:07:56;;;;;;;10.70;5.15;;;4.20;99.90;;;;;;466938;254;27395;-70
2021/04/23 01:09:57;;;;;;;15.80;7.10;;;4.10;99.90;;;;;;466798;255;28019;-71
2021/04/23 01:11:58;;;;;;;16.02;6.85;;;4.10;99.90;;;;;;466901;255;28976;-71
2021/04/23 01:13:59;;;;;;;12.48;6.22;;;4.10;99.90;;;;;;466927;255;27439;-70
2021/04/23 01:16:01;;;;;;;11.38;4.90;;;4.10;99.90;;;;;;467009;255;27476;-72
2021/04/23 01:18:02;;;;;;;10.65;5.15;;;4.10;99.90;;;;;;466949;255;27403;-70
2021/04/23 01:20:03;;;;;;;14.75;6.22;;;4.10;99.90;;;;;;466930;255;27442;-71
2021/04/23 01:22:04;;;;;;;12.43;5.72;;;4.10;99.90;;;;;;466956;255;27404;-70
2021/04/23 01:24:06;;;;;;;12.07;6.30;;;4.00;99.90;;;;;;466980;254;27925;-70
2021/04/23 01:26:07;;;;;;;21.23;7.00;;;3.90;99.90;;;;;;466947;255;27905;-71
2021/04/23 01:28:08;;;;;;;14.75;7.20;;;3.80;99.90;;;;;;466973;250;27408;-70
2021/04/23 01:30:09;;;;;;;12.50;6.25;;;3.70;99.90;;;;;;466973;255;27440;-71
2021/04/23 01:32:11;;;;;;;19.37;7.30;;;3.70;99.90;;;;;;466913;255;27483;-71
2021/04/23 01:34:12;;;;;;;13.93;5.82;;;3.70;99.90;;;;;;466903;255;27413;-71
2021/04/23 01:36:13;;;;;;;14.55;7.43;;;3.60;99.90;;;;;;466909;255;27535;-72
2021/04/23 01:38:15;;;;;;;11.40;6.45;;;3.60;99.90;;;;;;466919;255;27951;-70
2021/04/23 01:40:16;;;;;;;10.65;6.00;;;3.60;99.90;;;;;;466960;250;27913;-71
2021/04/23 01:42:17;;;;;;;11.70;4.97;;;3.60;99.90;;;;;;466901;251;27519;-70
2021/04/23 01:44:18;;;;;;;15.90;7.10;;;3.50;99.90;;;;;;466909;255;27416;-71
2021/04/23 01:46:20;;;;;;;11.02;5.87;;;3.50;99.90;;;;;;466951;251;27518;-71
2021/04/23 01:48:21;;;;;;;8.27;5.35;;;3.50;99.90;;;;;;466909;255;27452;-70
2021/04/23 01:50:22;;;;;;;11.63;5.97;;;3.50;99.90;;;;;;466788;250;27542;-70
2021/04/23 01:52:23;;;;;;;11.60;5.90;;;3.40;99.90;;;;;;466058;255;27421;-71
2021/04/23 01:54:25;;;;;;;12.37;4.65;;;3.40;99.90;;;;;;466599;255;27934;-71
2021/04/23 01:56:26;;;;;;;14.02;5.50;;;3.40;99.90;;;;;;466929;255;27906;-72
2021/04/23 01:58:27;;;;;;;8.60;4.70;;;3.50;99.90;;;;;;466925;255;27440;-71
2021/04/23 02:00:28;;;;;;;7.12;5.12;;;3.50;99.90;;;;;;466911;255;27512;-71
2021/04/23 02:02:30;;;;;;;11.40;5.28;;;3.50;99.90;;;;;;466894;251;27435;-70
2021/04/23 02:04:31;;;;;;;10.00;5.47;;;3.40;99.90;;;;;;466863;250;27431;-71
2021/04/23 02:06:32;;;;;;;12.05;5.80;;;3.40;99.90;;;;;;466900;254;27448;-72
2021/04/23 02:08:33;;;;;;;10.35;5.12;;;3.40;99.90;;;;;;466905;255;27491;-70
2021/04/23 02:10:35;;;;;;;13.38;5.05;;;3.40;99.90;;;;;;466937;255;27448;-71
2021/04/23 02:12:36;;;;;;;9.82;5.55;;;3.40;99.90;;;;;;466928;251;27945;-70
2021/04/23 02:14:37;;;;;;;9.27;5.30;;;3.30;99.90;;;;;;466921;255;27937;-70
2021/04/23 02:16:38;;;;;;;10.95;5.35;;;3.30;99.90;;;;;;466944;255;28013;-72
2021/04/23 02:18:40;;;;;;;15.63;7.03;;;3.40;99.90;;;;;;466905;255;27533;-71
2021/04/23 02:20:41;;;;;;;8.52;5.90;;;3.40;99.90;;;;;;466776;255;27494;-70
2021/04/23 02:22:42;;;;;;;10.43;4.93;;;3.40;99.90;;;;;;466910;255;27503;-69
2021/04/23 02:24:43;;;;;;;10.38;5.82;;;3.40;99.90;;;;;;466885;255;27459;-70
2021/04/23 02:26:45;;;;;;;10.27;5.22;;;3.40;99.90;;;;;;466923;255;27439;-71
2021/04/23 02:28:46;;;;;;;12.60;6.20;;;3.40;99.90;;;;;;466958;255;27488;-71
2021/04/23 02:30:47;;;;;;;11.77;5.45;;;3.40;99.90;;;;;;466963;250;27903;-71
2021/04/23 02:32:48;;;;;;;13.62;5.32;;;3.40;99.90;;;;;;466946;255;27859;-70
2021/04/23 02:34:50;;;;;;;10.77;5.20;;;3.30;99.90;;;;;;466886;255;27427;-70
2021/04/23 02:36:51;;;;;;;6.87;5.45;;;3.30;99.90;;;;;;466894;255;27439;-72
2021/04/23 02:38:52;;;;;;;6.72;5.18;;;3.30;99.90;;;;;;466893;250;27399;-70
2021/04/23 02:40:53;;;;;;;17.62;7.10;;;3.20;99.90;;;;;;466908;255;27431;-72
2021/04/23 02:42:55;;;;;;;14.43;6.57;;;3.20;99.90;;;;;;466896;251;27403;-70
2021/04/23 02:44:56;;;;;;;16.20;6.65;;;3.10;99.90;;;;;;466998;254;27520;-71
2021/04/23 02:46:57;;;;;;;21.10;6.85;;;3.10;99.90;;;;;;468580;249;27669;-71
2021/04/23 02:48:58;;;;;;;14.40;6.45;;;3.10;99.90;;;;;;468553;252;27958;-71
2021/04/23 02:51:00;;;;;;;12.70;6.60;;;3.10;99.90;;;;;;468552;252;28131;-72
2021/04/23 02:53:01;;;;;;;11.18;6.12;;;3.10;99.90;;;;;;468549;248;27605;-73
2021/04/23 02:55:02;;;;;;;12.43;6.45;;;3.00;99.90;;;;;;468548;252;27629;-72
2021/04/23 02:57:03;;;;;;;15.73;6.68;;;3.00;99.90;;;;;;468433;253;27637;-72
2021/04/23 02:59:05;;;;;;;12.35;5.80;;;2.90;99.90;;;;;;468567;252;27521;-71
2021/04/23 03:01:06;;;;;;;10.32;5.50;;;2.90;99.90;;;;;;468565;248;27661;-73
2021/04/23 03:03:07;;;;;;;13.00;6.47;;;2.90;99.90;;;;;;468518;253;27502;-72
2021/04/23 03:05:08;;;;;;;10.25;5.75;;;2.90;99.90;;;;;;468495;249;27532;-72
2021/04/23 03:07:10;;;;;;;9.57;5.85;;;2.90;99.90;;;;;;468507;249;28049;-73
2021/04/23 03:09:11;;;;;;;8.60;5.25;;;2.80;99.90;;;;;;468538;248;27948;-73
2021/04/23 03:11:12;;;;;;;8.02;4.97;;;2.70;99.90;;;;;;468520;253;28122;-73
2021/04/23 03:13:13;;;;;;;10.45;4.90;;;2.70;99.90;;;;;;468520;252;27513;-72
2021/04/23 03:15:15;;;;;;;9.63;5.40;;;2.70;99.90;;;;;;468509;253;27549;-73
2021/04/23 03:17:16;;;;;;;8.75;5.68;;;2.70;99.90;;;;;;468543;252;27548;-74
2021/04/23 03:19:17;;;;;;;9.10;5.90;;;2.70;99.90;;;;;;468534;249;27581;-73
2021/04/23 03:21:18;;;;;;;6.50;4.68;;;2.60;99.90;;;;;;468529;253;27583;-74
2021/04/23 03:23:20;;;;;;;8.07;5.22;;;2.60;99.90;;;;;;468555;252;27573;-72
2021/04/23 03:25:21;;;;;;;8.20;5.07;;;2.60;99.90;;;;;;468516;249;27550;-72
2021/04/23 03:27:22;;;;;;;12.95;5.95;;;2.70;99.90;;;;;;468545;252;27543;-73
2021/04/23 03:29:23;;;;;;;13.05;5.75;;;2.70;99.90;;;;;;468570;252;27520;-72
2021/04/23 03:31:25;;;;;;;10.25;6.00;;;2.70;99.90;;;;;;468564;252;28019;-73
2021/04/23 03:33:26;;;;;;;13.30;5.70;;;2.60;99.90;;;;;;468576;252;27976;-74
2021/04/23 03:35:27;;;;;;;9.63;5.60;;;2.60;99.90;;;;;;468585;248;27541;-72
2021/04/23 03:37:29;;;;;;;6.55;5.35;;;2.60;99.90;;;;;;468563;252;27557;-72
2021/04/23 03:39:30;;;;;;;22.45;7.10;;;2.50;99.90;;;;;;468581;252;27625;-73
2021/04/23 03:41:31;;;;;;;11.10;5.37;;;2.60;99.90;;;;;;468513;252;27636;-73
2021/04/23 03:43:32;;;;;;;10.05;5.70;;;2.50;99.90;;;;;;468560;252;27589;-72
2021/04/23 03:45:34;;;;;;;5.22;4.72;;;2.50;99.90;;;;;;468547;248;28079;-73
2021/04/23 03:47:35;;;;;;;10.13;6.10;;;2.50;99.90;;;;;;468558;249;28080;-73
2021/04/23 03:49:36;;;;;;;12.43;6.70;;;2.50;99.90;;;;;;468557;248;28018;-72
2021/04/23 03:51:37;;;;;;;12.55;5.85;;;2.50;99.90;;;;;;468537;252;27620;-73
2021/04/23 03:53:39;;;;;;;13.82;6.20;;;2.50;99.90;;;;;;468552;252;27604;-72
2021/04/23 03:55:40;;;;;;;7.50;5.68;;;2.50;99.90;;;;;;468550;252;27557;-73
2021/04/23 03:57:41;;;;;;;10.25;5.95;;;2.50;99.90;;;;;;468542;252;27646;-72
2021/04/23 03:59:42;;;;;;;12.13;6.57;;;2.50;99.90;;;;;;468545;249;27612;-73
2021/04/23 04:01:44;;;;;;;13.70;6.30;;;2.50;99.90;;;;;;468565;252;27551;-72
2021/04/23 04:03:45;;;;;;;11.82;6.90;;;2.40;99.90;;;;;;468526;248;27510;-72
2021/04/23 04:05:46;;;;;;;11.10;6.43;;;2.50;99.90;;;;;;468516;249;28008;-71
2021/04/23 04:07:48;;;;;;;11.35;6.43;;;2.50;99.90;;;;;;468572;249;28891;-72
2021/04/23 04:09:49;;;;;;;8.85;5.85;;;2.40;99.90;;;;;;468568;252;28039;-72
2021/04/23 04:11:50;;;;;;;14.27;6.35;;;2.40;99.90;;;;;;468508;252;27466;-73
2021/04/23 04:13:51;;;;;;;12.32;5.72;;;2.30;99.90;;;;;;468588;248;27509;-72
2021/04/23 04:15:52;;;;;;;13.90;6.32;;;2.20;99.90;;;;;;468594;252;27545;-72
2021/04/23 04:17:54;;;;;;;12.60;6.12;;;2.10;99.90;;;;;;468590;248;27493;-72
2021/04/23 04:19:55;;;;;;;9.02;6.12;;;1.90;99.90;;;;;;468563;252;27494;-72
2021/04/23 04:21:56;;;;;;;11.35;5.85;;;1.80;99.90;;;;;;468580;252;27536;-72
2021/04/23 04:23:57;;;;;;;13.40;6.32;;;1.90;99.90;;;;;;468580;252;27520;-71
2021/04/23 04:25:59;;;;;;;10.02;6.35;;;1.80;99.90;;;;;;468548;252;27997;-72
2021/04/23 04:28:00;;;;;;;9.38;5.97;;;1.80;99.90;;;;;;468564;252;28023;-72
2021/04/23 04:30:01;;;;;;;9.65;5.78;;;1.80;99.90;;;;;;468530;252;27972;-72
2021/04/23 04:32:02;;;;;;;14.57;5.90;;;1.80;99.90;;;;;;468531;252;27573;-73
2021/04/23 04:34:04;;;;;;;12.52;6.60;;;1.90;99.90;;;;;;468548;252;27615;-72
2021/04/23 04:36:05;;;;;;;10.30;6.22;;;1.90;99.90;;;;;;468546;249;27616;-73
2021/04/23 04:38:07;;;;;;;13.85;7.65;;;1.80;99.90;;;;;;468570;253;27506;-72
2021/04/23 04:40:07;;;;;;;16.67;7.22;;;1.90;99.90;;;;;;468252;249;27553;-72
2021/04/23 04:42:09;;;;;;;14.70;7.30;;;1.90;99.90;;;;;;468556;252;27597;-73
2021/04/23 04:44:10;;;;;;;10.18;6.20;;;1.90;99.90;;;;;;468574;248;27477;-73
2021/04/23 04:46:11;;;;;;;11.12;6.40;;;1.90;99.90;;;;;;468543;249;27578;-73
2021/04/23 04:48:12;;;;;;;12.73;6.15;;;1.90;99.90;;;;;;468557;253;28008;-72
2021/04/23 04:50:14;;;;;;;10.93;6.40;;;1.80;99.90;;;;;;468552;253;27958;-72
2021/04/23 04:52:15;;;;;;;10.15;6.40;;;1.80;99.90;;;;;;468563;252;27561;-72
2021/04/23 04:54:16;;;;;;;11.15;6.07;;;1.70;99.90;;;;;;468557;252;27470;-72
2021/04/23 04:56:18;;;;;;;14.27;6.43;;;1.60;99.90;;;;;;468555;248;27531;-73
2021/04/23 04:58:19;;;;;;;13.90;7.68;;;1.60;99.90;;;;;;468542;248;27601;-73
2021/04/23 05:00:20;;;;;;;11.32;6.82;;;1.60;99.90;;;;;;468584;248;27569;-72
2021/04/23 05:02:21;;;;;;;7.70;6.18;;;1.60;99.90;;;;;;468543;249;27829;-74
2021/04/23 05:04:23;;;;;;;10.68;6.12;;;1.60;99.90;;;;;;468612;252;27430;-71
2021/04/23 05:06:24;;;;;;;8.02;6.22;;;1.70;99.90;;;;;;468569;252;28000;-73
2021/04/23 05:08:25;;;;;;;16.37;8.07;;;1.70;99.90;;;;;;468583;248;27965;-72
2021/04/23 05:10:26;;;;;;;14.02;8.00;;;1.80;99.90;;;;;;468602;249;28065;-73
2021/04/23 05:12:28;;;;;;;12.50;6.20;;;1.70;99.90;;;;;;468303;252;27692;-73
2021/04/23 05:14:29;;;;;;;10.80;6.90;;;1.60;99.90;;;;;;468564;252;27509;-72
2021/04/23 05:16:30;;;;;;;10.45;6.72;;;1.70;99.90;;;;;;468520;252;27540;-73
2021/04/23 05:18:31;;;;;;;10.45;5.97;;;1.70;99.90;;;;;;468131;249;27450;-73
2021/04/23 05:20:33;;;;;;;13.38;6.97;;;1.80;99.90;;;;;;467767;252;27883;-72
2021/04/23 05:22:34;;;;;;;14.38;6.55;;;1.80;99.90;;;;;;468334;252;27572;-73
2021/04/23 05:24:35;;;;;;;19.05;7.47;;;1.80;99.90;;;;;;468586;248;27635;-73
2021/04/23 05:26:36;;;;;;;9.10;5.87;;;1.80;99.90;;;;;;468603;252;28000;-73
2021/04/23 05:28:38;;;;;;;11.63;6.78;;;1.90;99.90;;;;;;468622;252;27966;-72
2021/04/23 05:30:39;;;;;;;11.50;6.10;;;1.90;99.90;;;;;;468570;252;28097;-72
2021/04/23 05:32:40;;;;;;;8.43;6.00;;;1.90;99.90;;;;;;468563;248;27672;-73
2021/04/23 05:34:41;;;;;;;13.55;7.00;;;2.00;99.90;;;;;;468588;253;27515;-72
2021/04/23 05:36:45;;;;;;;9.57;7.00;;;1.90;99.90;;;;;;468585;252;27537;-72
2021/04/23 05:38:44;;;;;;;10.80;6.30;;;2.00;99.90;;;;;;468457;253;27557;-72
2021/04/23 05:40:45;;;;;;;13.95;7.68;;;2.00;99.90;;;;;;468552;248;27532;-73
2021/04/23 05:42:46;;;;;;;13.95;6.40;;;2.10;99.90;;;;;;468537;248;27545;-72
2021/04/23 05:44:48;;;;;;;14.93;7.30;;;2.20;99.90;;;;;;468581;252;27422;-73
2021/04/23 05:46:49;;;;;;;10.80;7.12;;;2.30;99.90;;;;;;468584;253;27550;-73
2021/04/23 05:48:50;;;;;;;14.07;7.80;;;2.50;99.90;;;;;;468566;252;28000;-71
2021/04/23 05:50:51;;;;;;;13.50;6.72;;;2.50;99.90;;;;;;468567;253;28010;-72
2021/04/23 05:52:53;;;;;;;11.35;6.90;;;2.60;99.90;;;;;;468523;249;28629;-72
2021/04/23 05:54:54;;;;;;;11.57;7.20;;;2.80;99.90;;;;;;468567;252;27509;-72
2021/04/23 05:56:55;;;;;;;13.85;7.30;;;3.60;99.90;;;;;;468564;252;27537;-74
2021/04/23 05:58:56;;;;;;;14.75;6.43;;;4.20;99.90;;;;;;468584;248;27433;-72
2021/04/23 06:00:58;;;;;;;9.57;6.30;;;4.40;99.90;;;;;;468560;248;27652;-72
2021/04/23 06:02:59;;;;;;;14.65;6.07;;;4.40;99.90;;;;;;468592;249;27613;-72
2021/04/23 06:05:00;;;;;;;16.10;6.55;;;4.90;99.90;;;;;;468595;252;27636;-72
2021/04/23 06:07:01;;;;;;;17.67;6.93;;;5.40;99.90;;;;;;468573;252;27624;-72
2021/04/23 06:09:03;;;;;;;12.98;7.28;;;5.60;99.90;;;;;;468582;252;28062;-70
2021/04/23 06:11:05;;;;;;;11.80;6.55;;;5.70;99.90;;;;;;468573;249;28016;-70
2021/04/23 06:13:05;;;;;;;18.58;6.43;;;5.90;99.90;;;;;;468517;252;27613;-70
2021/04/23 06:15:06;;;;;;;17.45;6.60;;;5.90;99.90;;;;;;468581;252;27466;-71
2021/04/23 06:17:08;;;;;;;17.15;6.62;;;6.00;99.90;;;;;;468581;248;27548;-71
2021/04/23 06:19:09;;;;;;;11.32;6.10;;;6.00;99.90;;;;;;468584;252;27510;-70
2021/04/23 06:21:10;;;;;;;17.37;7.18;;;6.00;99.90;;;;;;468593;252;28015;-71
2021/04/23 06:23:11;;;;;;;25.27;7.22;;;6.10;99.90;;;;;;468647;248;28101;-71
2021/04/23 06:25:13;;;;;;;11.15;6.93;;;6.10;99.90;;;;;;468638;249;27505;-71
2021/04/23 06:27:14;;;;;;;15.57;7.30;;;6.10;99.90;;;;;;468579;248;27534;-71
2021/04/23 06:29:15;;;;;;;13.13;6.57;;;6.10;99.90;;;;;;468611;252;27596;-70
2021/04/23 06:31:17;;;;;;;12.35;6.35;;;6.10;99.90;;;;;;468598;252;27633;-70
2021/04/23 06:33:20;;;;;;;14.27;7.28;;;6.20;99.90;;;;;;468627;252;28922;-70
2021/04/23 06:35:19;;;;;;;13.43;6.07;;;6.30;99.90;;;;;;468509;253;27958;-71
2021/04/23 06:37:20;;;;;;;10.35;5.80;;;6.30;99.90;;;;;;468635;252;27534;-70
2021/04/23 06:39:22;;;;;;;15.10;6.75;;;6.30;99.90;;;;;;468651;252;27584;-71
2021/04/23 06:41:23;;;;;;;16.20;7.93;;;6.40;99.90;;;;;;468671;252;27552;-70
2021/04/23 06:43:24;;;;;;;13.03;6.73;;;6.40;99.90;;;;;;468653;248;28095;-70
2021/04/23 06:45:25;;;;;;;16.97;7.10;;;6.50;99.90;;;;;;468629;248;28065;-70
2021/04/23 06:47:27;;;;;;;9.90;6.72;;;6.50;99.90;;;;;;468659;252;28230;-72
2021/04/23 06:49:28;;;;;;;15.05;6.35;;;6.60;99.90;;;;;;468653;252;28021;-70
2021/04/23 06:51:29;;;;;;;11.13;6.40;;;6.60;99.90;;;;;;468584;252;27648;-75
2021/04/23 06:53:30;;;;;;;20.60;6.82;;;6.60;99.90;;;;;;468585;248;28617;-71
2021/04/23 06:55:32;;;;;;;10.45;6.72;;;6.60;99.90;;;;;;468577;248;27513;-70
2021/04/23 06:57:33;;;;;;;15.53;5.87;;;6.60;99.90;;;;;;468597;252;27466;-71
2021/04/23 06:59:34;;;;;;;11.83;6.63;;;6.70;99.90;;;;;;468610;252;27858;-71
2021/04/23 07:01:35;;;;;;;13.00;6.67;;;6.80;99.90;;;;;;468592;252;28464;-70
2021/04/23 07:03:37;;;;;;;16.97;7.20;;;6.90;99.90;;;;;;468559;252;28043;-70
2021/04/23 07:05:38;;;;;;;11.60;6.50;;;7.00;99.90;;;;;;468580;248;28399;-71
2021/04/23 07:07:39;;;;;;;13.30;6.10;;;7.00;99.90;;;;;;468516;252;29200;-72
2021/04/23 07:09:40;;;;;;;15.30;5.93;;;7.00;99.90;;;;;;468576;252;28083;-71
2021/04/23 07:11:42;;;;;;;14.37;6.43;;;7.10;99.90;;;;;;468587;252;28033;-70
2021/04/23 07:13:43;;;;;;;7.80;5.43;;;7.10;99.90;;;;;;468573;248;28567;-71
2021/04/23 07:15:44;;;;;;;10.37;6.23;;;7.10;99.90;;;;;;468600;248;28599;-71
2021/04/23 07:17:45;;;;;;;14.67;6.97;;;7.10;99.90;;;;;;468636;252;28153;-71
2021/04/23 07:19:47;;;;;;;16.10;6.20;;;7.30;99.90;;;;;;468650;248;27881;-71
2021/04/23 07:21:48;;;;;;;13.60;6.50;;;7.40;99.90;;;;;;468654;248;28124;-71
2021/04/23 07:23:49;;;;;;;13.87;7.10;;;7.40;99.90;;;;;;468656;252;28032;-71
2021/04/23 07:25:50;;;;;;;18.13;8.40;;;7.30;99.90;;;;;;468634;252;27945;-71
2021/04/23 07:27:52;;;;;;;11.47;6.93;;;7.40;99.90;;;;;;468610;252;28391;-72
2021/04/23 07:29:53;;;;;;;10.47;6.57;;;7.40;99.90;;;;;;468668;252;28501;-71
2021/04/23 07:31:54;;;;;;;13.33;6.27;;;7.40;99.90;;;;;;468629;252;28473;-71
2021/04/23 07:33:56;;;;;;;12.10;6.60;;;7.60;99.90;;;;;;468614;248;28002;-71
2021/04/23 07:35:57;;;;;;;18.53;6.87;;;7.70;99.90;;;;;;468615;248;27947;-71
2021/04/23 07:37:58;;;;;;;14.13;7.00;;;7.80;99.90;;;;;;468620;252;28030;-71
2021/04/23 07:39:59;;;;;;;10.50;6.60;;;7.90;99.90;;;;;;468619;252;27758;-71
2021/04/23 07:42:01;;;;;;;11.10;6.37;;;7.90;99.90;;;;;;468561;248;28126;-71
2021/04/23 07:44:02;;;;;;;14.57;7.33;;;7.80;99.90;;;;;;468621;252;27982;-70
2021/04/23 07:46:03;;;;;;;10.03;6.70;;;7.80;99.90;;;;;;468620;252;28116;-71
2021/04/23 07:48:04;;;;;;;12.13;7.10;;;8.10;99.90;;;;;;468649;248;28122;-71
2021/04/23 07:50:05;;;;;;;12.30;7.03;;;8.20;99.90;;;;;;468599;248;28009;-71
2021/04/23 07:52:07;;;;;;;7.60;6.20;;;8.20;99.90;;;;;;468617;252;28466;-71
2021/04/23 07:54:09;;;;;;;13.83;5.97;;;8.20;99.90;;;;;;468657;248;28400;-71
2021/04/23 07:56:09;;;;;;;9.77;6.03;;;8.20;99.90;;;;;;468565;253;28568;-71
2021/04/23 07:58:10;;;;;;;10.13;5.77;;;8.20;99.90;;;;;;468619;248;29236;-71
2021/04/23 08:00:12;;;;;;;15.00;6.40;;;8.40;99.90;;;;;;468644;252;27795;-70
2021/04/23 08:02:13;;;;;;;12.57;6.70;;;8.50;99.90;;;;;;468633;252;27877;-71
2021/04/23 08:04:14;;;;;;;14.83;6.90;;;8.40;99.90;;;;;;468578;252;27990;-71
2021/04/23 08:06:15;;;;;;;13.43;6.80;;;8.40;99.90;;;;;;468581;248;27762;-71
2021/04/23 08:08:17;;;;;;;14.03;7.30;;;8.40;99.90;;;;;;468597;252;28124;-72
2021/04/23 08:10:18;;;;;;;15.33;7.03;;;8.40;99.90;;;;;;468612;248;27986;-71
2021/04/23 08:12:19;;;;;;;14.27;6.73;;;8.40;99.90;;;;;;468665;253;27957;-72
2021/04/23 08:14:20;;;;;;;12.33;7.03;;;8.50;99.90;;;;;;468590;252;28065;-71
2021/04/23 08:16:22;;;;;;;12.67;6.90;;;8.60;99.90;;;;;;468595;249;28217;-71
2021/04/23 08:18:24;;;;;;;14.97;7.30;;;8.60;99.90;;;;;;468617;248;28485;-71
2021/04/23 08:20:24;;;;;;;11.97;5.80;;;8.70;99.90;;;;;;468534;249;28467;-71
2021/04/23 08:22:25;;;;;;;14.27;7.00;;;8.70;99.90;;;;;;468630;252;28023;-73
2021/04/23 08:24:27;;;;;;;18.33;7.10;;;8.70;99.90;;;;;;468637;249;27897;-71
2021/04/23 08:26:28;;;;;;;11.37;6.60;;;8.70;99.90;;;;;;468647;252;27897;-72
2021/04/23 08:28:29;;;;;;;11.80;7.10;;;8.70;99.90;;;;;;468652;252;27991;-71
2021/04/23 08:30:30;;;;;;;13.13;6.73;;;8.80;99.90;;;;;;468659;252;27801;-71
2021/04/23 08:32:32;;;;;;;15.77;6.57;;;8.80;99.90;;;;;;468597;252;28047;-72
2021/04/23 08:34:33;;;;;;;10.67;6.40;;;8.90;99.90;;;;;;468605;249;27873;-71
2021/04/23 08:36:34;;;;;;;15.53;6.93;;;9.10;99.90;;;;;;468611;252;28108;-71
2021/04/23 08:38:35;;;;;;;11.33;7.07;;;9.10;99.90;;;;;;468607;249;27834;-71
2021/04/23 08:40:37;;;;;;;7.50;5.30;;;9.20;99.90;;;;;;468586;252;28155;-71
2021/04/23 08:42:38;;;;;;;13.67;7.07;;;9.20;99.90;;;;;;468654;248;28575;-71
2021/04/23 08:44:39;;;;;;;10.37;5.93;;;9.20;99.90;;;;;;468600;252;28612;-71
2021/04/23 08:46:40;;;;;;;8.30;5.70;;;9.30;99.90;;;;;;468610;252;28603;-71
2021/04/23 08:48:42;;;;;;;15.03;6.57;;;9.50;99.90;;;;;;468610;252;28327;-71
2021/04/23 08:50:43;;;;;;;11.00;6.43;;;9.50;99.90;;;;;;468636;248;28147;-71
2021/04/23 08:52:44;;;;;;;10.33;6.50;;;9.60;99.90;;;;;;468671;248;28009;-72
2021/04/23 08:54:45;;;;;;;8.30;6.10;;;9.60;99.90;;;;;;468608;252;27879;-71
2021/04/23 08:56:47;;;;;;;10.77;6.60;;;9.50;99.90;;;;;;468627;253;27705;-72
2021/04/23 08:58:48;;;;;;;9.73;6.13;;;9.50;99.90;;;;;;468634;252;28120;-71
2021/04/23 09:00:49;;;;;;;12.00;6.10;;;9.50;99.90;;;;;;468639;252;27947;-71
2021/04/23 09:02:50;;;;;;;14.93;6.73;;;9.50;99.90;;;;;;468611;253;27924;-71
2021/04/23 09:04:52;;;;;;;12.90;6.30;;;9.70;99.90;;;;;;468619;248;28177;-71
2021/04/23 09:06:53;;;;;;;13.77;5.87;;;9.70;99.90;;;;;;468596;252;28162;-72
2021/04/23 09:08:55;;;;;;;12.93;5.83;;;9.60;99.90;;;;;;468607;249;28666;-71
2021/04/23 09:10:55;;;;;;;10.50;6.13;;;9.60;99.90;;;;;;468583;252;28481;-72
2021/04/23 09:12:57;;;;;;;10.90;6.10;;;9.70;99.90;;;;;;468596;252;28563;-71
2021/04/23 09:15:00;;;;;;;10.67;5.87;;;9.80;99.90;;;;;;468603;248;28424;-71
2021/04/23 09:17:00;;;;;;;13.87;5.63;;;9.80;99.90;;;;;;468550;253;28021;-72
2021/04/23 09:19:00;;;;;;;14.33;6.30;;;9.60;99.90;;;;;;468560;252;28124;-71
2021/04/23 09:21:02;;;;;;;14.70;6.50;;;9.90;99.90;;;;;;468602;252;28024;-71
2021/04/23 09:23:03;;;;;;;12.53;7.00;;;10.20;99.90;;;;;;468596;248;28119;-70
2021/04/23 09:25:04;;;;;;;12.13;6.40;;;10.00;99.90;;;;;;468700;252;27996;-71
2021/04/23 09:27:05;;;;;;;12.50;6.70;;;10.10;99.90;;;;;;468583;252;28032;-73
2021/04/23 09:29:07;;;;;;;11.40;7.20;;;10.00;99.90;;;;;;468669;252;27942;-72
2021/04/23 09:31:08;;;;;;;8.93;6.03;;;10.10;99.90;;;;;;468605;252;28449;-71
2021/04/23 09:33:09;;;;;;;9.87;5.60;;;10.10;99.90;;;;;;468659;252;29184;-71
2021/04/23 09:35:10;;;;;;;11.70;5.63;;;10.10;99.90;;;;;;468650;248;28583;-71
2021/04/23 09:37:12;;;;;;;12.37;5.53;;;10.00;99.90;;;;;;468645;252;27829;-74
2021/04/23 09:39:13;;;;;;;11.93;5.70;;;10.00;99.90;;;;;;468688;252;28394;-72
2021/04/23 09:41:14;;;;;;;8.90;5.80;;;10.60;99.90;;;;;;468665;252;27962;-71
2021/04/23 09:43:15;;;;;;;13.80;6.53;;;10.50;99.90;;;;;;468683;252;28091;-72
2021/04/23 09:45:17;;;;;;;6.93;5.43;;;10.30;99.90;;;;;;468662;248;28354;-72
2021/04/23 09:47:18;;;;;;;19.47;7.00;;;10.50;99.90;;;;;;468684;252;28018;-71
2021/04/23 09:49:19;;;;;;;13.43;6.40;;;10.60;99.90;;;;;;468690;248;28112;-71
2021/04/23 09:51:21;;;;;;;14.80;6.20;;;10.50;99.70;;;;;;468555;248;28592;-71
2021/04/23 09:53:22;;;;;;;12.20;5.57;;;10.50;98.80;;;;;;468650;253;28484;-71
2021/04/23 09:55:23;;;;;;;6.70;5.07;;;10.60;99.90;;;;;;468655;249;28192;-71
2021/04/23 09:57:26;;;;;;;8.10;5.70;;;10.70;98.80;;;;;;468658;248;28221;-72
2021/04/23 09:59:26;;;;;;;11.80;5.90;;;10.50;98.50;;;;;;468494;253;28221;-71
2021/04/23 10:01:27;;;;;;;6.30;4.97;;;10.70;98.40;;;;;;468623;248;28086;-71
2021/04/23 10:03:28;;;;;;;9.40;6.30;;;10.50;97.40;;;;;;468630;248;28205;-71
2021/04/23 10:05:29;;;;;;;11.60;6.00;;;10.50;99.30;;;;;;468678;248;28035;-72
2021/04/23 10:07:34;;;;;;;11.80;5.63;;;10.70;98.40;;;;;;468629;252;28259;-72
2021/04/23 10:09:32;;;;;;;8.63;6.30;;;11.00;98.70;;;;;;468373;252;28222;-72
2021/04/23 10:11:33;;;;;;;10.40;6.10;;;10.80;97.30;;;;;;468606;249;28813;-71
2021/04/23 10:13:34;;;;;;;12.90;5.67;;;10.90;97.50;;;;;;468598;252;28566;-71
2021/04/23 10:15:36;;;;;;;11.17;6.00;;;11.00;98.10;;;;;;468587;253;28752;-71
2021/04/23 10:17:37;;;;;;;11.33;5.60;;;10.90;96.10;;;;;;468605;252;28404;-71
2021/04/23 10:19:38;;;;;;;10.17;5.87;;;10.90;96.10;;;;;;468621;252;28211;-72
2021/04/23 10:21:39;;;;;;;6.57;4.40;;;11.00;98.10;;;;;;468590;253;28265;-71
2021/04/23 10:23:42;;;;;;;7.90;4.73;;;;;;;;;;468484;252;28240;-71
2021/04/23 10:25:43;;;;;;;7.30;4.80;;;11.40;96.10;;;;;;468551;248;27662;-72
2021/04/23 10:27:45;;;;;;;7.30;4.43;;;11.60;92.50;;;;;;468703;252;28312;-72
2021/04/23 10:29:46;;;;;;;7.83;4.70;;;11.60;93.50;;;;;;468556;252;28458;-72
2021/04/23 10:31:47;;;;;;;10.90;5.37;;;11.60;93.90;;;;;;468614;252;28426;-71